createdAt,value
2023-05-05T00:02:17.901Z,99827.44
2023-05-05T00:04:45.222Z,99828.28
2023-05-05T00:07:12.560Z,99824.41
2023-05-05T00:09:39.606Z,99820.72
2023-05-05T00:12:07.149Z,99823.63
2023-05-05T00:14:34.298Z,99822.81
2023-05-05T00:17:02.335Z,99817.94
2023-05-05T00:19:29.412Z,99812.19
2023-05-05T00:21:56.867Z,99820.44
2023-05-05T00:24:24.139Z,99822.94
2023-05-05T00:26:51.446Z,99805.66
2023-05-05T00:29:18.531Z,99808.97
2023-05-05T00:31:46.087Z,99803.84
2023-05-05T00:34:13.263Z,99807.38
2023-05-05T00:36:41.306Z,99802.47
2023-05-05T00:39:08.946Z,99798.78
2023-05-05T00:41:36.581Z,99795.69
2023-05-05T00:44:04.124Z,99804.13
2023-05-05T00:46:34.768Z,99796.75
2023-05-05T00:49:03.037Z,99788.56
2023-05-05T00:51:31.937Z,99795.78
2023-05-05T00:53:59.100Z,99793.94
2023-05-05T00:56:27.365Z,99792.75
2023-05-05T00:58:54.941Z,99794.78
2023-05-05T01:01:23.108Z,99797.28
2023-05-05T01:03:50.360Z,99805.13
2023-05-05T01:06:36.788Z,99803.50
2023-05-05T01:09:44.567Z,99794.44
2023-05-05T01:12:33.637Z,99791.56
2023-05-05T01:15:18.516Z,99795.69
2023-05-05T01:18:33.954Z,99784.19
2023-05-05T01:21:17.374Z,99787.91
2023-05-05T01:24:12.512Z,99785.03
2023-05-05T01:27:28.972Z,99787.50
2023-05-05T01:30:45.936Z,99785.66
2023-05-05T01:33:23.101Z,99781.78
2023-05-05T01:36:10.633Z,99785.91
2023-05-05T01:38:45.731Z,99781.38
2023-05-05T01:41:43.301Z,99781.19
2023-05-05T01:44:14.642Z,99790.63
2023-05-05T01:46:42.376Z,99784.25
2023-05-05T01:49:12.401Z,99778.53
2023-05-05T01:51:41.371Z,99780.56
2023-05-05T01:54:10.359Z,99789.19
2023-05-05T01:56:43.018Z,99775.66
2023-05-05T01:59:12.515Z,99777.31
2023-05-05T02:01:41.744Z,99785.72
2023-05-05T02:04:11.916Z,99774.84
2023-05-05T02:06:41.318Z,99769.91
2023-05-05T02:09:13.198Z,99771.75
2023-05-05T02:11:41.369Z,99771.13
2023-05-05T02:14:11.202Z,99780.53
2023-05-05T02:16:41.260Z,99775.66
2023-05-05T02:19:09.865Z,99778.91
2023-05-05T02:21:38.062Z,99779.31
2023-05-05T02:24:10.236Z,99777.28
2023-05-05T02:26:42.383Z,99775.41
2023-05-05T02:29:21.885Z,99780.50
2023-05-05T02:31:55.174Z,99780.91
2023-05-05T02:34:28.767Z,99777.63
2023-05-05T02:37:03.466Z,99788.69
2023-05-05T02:39:55.429Z,99786.63
2023-05-05T02:42:26.703Z,99784.13
2023-05-05T02:44:59.635Z,99788.84
2023-05-05T02:47:36.629Z,99782.06
2023-05-05T02:50:05.990Z,99786.16
2023-05-05T02:52:36.146Z,99781.22
2023-05-05T02:55:06.459Z,99784.94
2023-05-05T02:57:48.603Z,99789.00
2023-05-05T03:00:21.032Z,99792.88
2023-05-05T03:03:02.317Z,99792.47
2023-05-05T03:05:43.889Z,99795.94
2023-05-05T03:08:18.088Z,99793.06
2023-05-05T03:11:00.944Z,99799.16
2023-05-05T03:13:34.481Z,99793.38
2023-05-05T03:16:08.950Z,99793.97
2023-05-05T03:18:38.346Z,99787.22
2023-05-05T03:21:09.916Z,99791.28
2023-05-05T03:23:40.748Z,99784.72
2023-05-05T03:26:18.559Z,99787.78
2023-05-05T03:28:46.930Z,99794.09
2023-05-05T03:31:28.549Z,99795.53
2023-05-05T03:33:59.380Z,99785.88
2023-05-05T03:36:31.887Z,99794.50
2023-05-05T03:39:00.074Z,99799.44
2023-05-05T03:41:31.321Z,99802.09
2023-05-05T03:43:58.799Z,99806.41
2023-05-05T03:46:26.832Z,99806.41
2023-05-05T03:48:57.106Z,99813.78
2023-05-05T03:51:25.417Z,99803.50
2023-05-05T03:53:53.216Z,99805.78
2023-05-05T03:56:20.698Z,99797.81
2023-05-05T03:58:48.131Z,99801.09
2023-05-05T04:01:15.204Z,99801.91
2023-05-05T04:03:42.733Z,99797.38
2023-05-05T04:06:10.276Z,99800.69
2023-05-05T04:08:37.666Z,99796.81
2023-05-05T04:11:06.034Z,99796.41
2023-05-05T04:13:34.964Z,99781.09
2023-05-05T04:16:04.409Z,99790.09
2023-05-05T04:18:32.341Z,99786.44
2023-05-05T04:20:59.944Z,99792.63
2023-05-05T04:23:31.576Z,99800.03
2023-05-05T04:25:59.251Z,99799.88
2023-05-05T04:28:28.436Z,99793.94
2023-05-05T04:30:55.745Z,99798.47
2023-05-05T04:33:23.515Z,99801.34
2023-05-05T04:35:51.048Z,99805.25
2023-05-05T04:38:20.676Z,99812.44
2023-05-05T04:40:49.004Z,99808.38
2023-05-05T04:43:17.231Z,99809.22
2023-05-05T04:45:55.658Z,99814.97
2023-05-05T04:48:26.680Z,99817.88
2023-05-05T04:50:53.863Z,99810.91
2023-05-05T04:53:21.242Z,99818.91
2023-05-05T04:55:48.501Z,99827.34
2023-05-05T04:58:15.833Z,99835.16
2023-05-05T05:00:43.758Z,99832.28
2023-05-05T05:03:11.418Z,99824.50
2023-05-05T05:05:39.621Z,99824.91
2023-05-05T05:08:07.079Z,99818.94
2023-05-05T05:10:35.419Z,99825.50
2023-05-05T05:13:03.228Z,99822.00
2023-05-05T05:15:30.840Z,99822.41
2023-05-05T05:17:58.270Z,99823.22
2023-05-05T05:20:25.509Z,99821.16
2023-05-05T05:22:52.915Z,99818.28
2023-05-05T05:25:21.666Z,99830.19
2023-05-05T05:27:58.493Z,99838.34
2023-05-05T05:30:36.535Z,99841.59
2023-05-05T05:33:06.705Z,99830.44
2023-05-05T05:35:33.922Z,99837.72
2023-05-05T05:38:02.447Z,99824.47
2023-05-05T05:40:31.436Z,99824.13
2023-05-05T05:42:59.526Z,99817.19
2023-05-05T05:45:28.388Z,99815.72
2023-05-05T05:47:56.398Z,99820.81
2023-05-05T05:50:27.060Z,99824.69
2023-05-05T05:52:55.504Z,99824.94
2023-05-05T05:55:23.145Z,99816.31
2023-05-05T05:57:50.646Z,99831.28
2023-05-05T06:00:18.195Z,99826.69
2023-05-05T06:02:51.624Z,99825.69
2023-05-05T06:05:22.527Z,99830.78
2023-05-05T06:07:51.785Z,99827.06
2023-05-05T06:12:54.591Z,99822.13
2023-05-05T06:15:21.930Z,99816.25
2023-05-05T06:17:49.488Z,99822.00
2023-05-05T06:20:17.101Z,99825.09
2023-05-05T06:22:44.536Z,99824.72
2023-05-05T06:25:11.882Z,99828.06
2023-05-05T06:27:39.451Z,99836.25
2023-05-05T06:30:09.444Z,99831.59
2023-05-05T06:32:37.331Z,99819.81
2023-05-05T06:35:05.004Z,99816.09
2023-05-05T06:37:32.612Z,99814.44
2023-05-05T06:39:59.709Z,99824.41
2023-05-05T06:42:27.149Z,99809.56
2023-05-05T06:44:54.287Z,99818.31
2023-05-05T06:47:22.051Z,99816.91
2023-05-05T06:49:49.156Z,99820.22
2023-05-05T06:52:16.574Z,99813.88
2023-05-05T06:54:44.169Z,99813.72
2023-05-05T06:57:11.731Z,99809.47
2023-05-05T06:59:38.816Z,99805.25
2023-05-05T07:02:06.591Z,99811.06
2023-05-05T07:04:34.189Z,99802.22
2023-05-05T07:07:01.787Z,99803.88
2023-05-05T07:09:29.288Z,99803.03
2023-05-05T07:11:56.756Z,99795.16
2023-05-05T07:14:24.539Z,99791.09
2023-05-05T07:16:52.039Z,99789.38
2023-05-05T07:19:19.203Z,99790.38
2023-05-05T07:21:47.378Z,99788.66
2023-05-05T07:24:14.533Z,99782.69
2023-05-05T07:26:42.235Z,99789.19
2023-05-05T07:29:09.271Z,99780.34
2023-05-05T07:31:36.774Z,99779.16
2023-05-05T07:34:03.950Z,99778.34
2023-05-05T07:36:32.157Z,99778.97
2023-05-05T07:38:59.195Z,99777.34
2023-05-05T07:41:26.618Z,99773.19
2023-05-05T07:43:53.689Z,99768.50
2023-05-05T07:46:21.090Z,99771.50
2023-05-05T07:48:48.322Z,99765.56
2023-05-05T07:51:16.128Z,99766.28
2023-05-05T07:53:43.292Z,99763.28
2023-05-05T07:56:10.957Z,99773.59
2023-05-05T07:58:38.008Z,99756.16
2023-05-05T08:01:06.844Z,99757.13
2023-05-05T08:03:34.191Z,99762.03
2023-05-05T08:06:10.005Z,99754.41
2023-05-05T08:08:38.079Z,99752.69
2023-05-05T08:11:06.565Z,99750.66
2023-05-05T08:13:34.575Z,99751.56
2023-05-05T08:16:04.837Z,99754.78
2023-05-05T08:18:32.061Z,99753.09
2023-05-05T08:20:59.387Z,99750.13
2023-05-05T08:23:26.541Z,99744.53
2023-05-05T08:25:54.160Z,99756.16
2023-05-05T08:28:21.321Z,99758.16
2023-05-05T08:30:49.914Z,99741.47
2023-05-05T08:33:17.090Z,99749.03
2023-05-05T08:35:44.993Z,99747.03
2023-05-05T08:38:12.648Z,99747.06
2023-05-05T08:40:41.037Z,99740.16
2023-05-05T08:43:08.497Z,99741.97
2023-05-05T08:45:37.130Z,99748.22
2023-05-05T08:48:05.744Z,99744.53
2023-05-05T08:50:33.450Z,99744.22
2023-05-05T08:53:17.474Z,99737.66
2023-05-05T08:55:51.964Z,99737.34
2023-05-05T08:58:19.741Z,99731.41
2023-05-05T09:00:47.363Z,99733.81
2023-05-05T09:03:16.479Z,99724.88
2023-05-05T09:05:44.920Z,99728.84
2023-05-05T09:08:12.447Z,99728.59
2023-05-05T09:10:44.645Z,99728.13
2023-05-05T09:13:12.013Z,99721.94
2023-05-05T09:15:41.261Z,99728.69
2023-05-05T09:18:09.543Z,99726.88
2023-05-05T09:20:39.731Z,99720.91
2023-05-05T09:23:21.486Z,99725.78
2023-05-05T09:26:08.819Z,99723.72
2023-05-05T09:28:37.423Z,99730.72
2023-05-05T09:31:15.960Z,99722.03
2023-05-05T09:33:43.975Z,99736.31
2023-05-05T09:36:12.188Z,99734.63
2023-05-05T09:38:39.416Z,99728.69
2023-05-05T09:41:06.902Z,99728.69
2023-05-05T09:43:51.965Z,99720.41
2023-05-05T09:46:19.803Z,99720.41
2023-05-05T09:48:47.148Z,99726.13
2023-05-05T09:51:14.870Z,99723.38
2023-05-05T09:53:42.507Z,99715.16
2023-05-05T09:56:10.492Z,99720.13
2023-05-05T09:58:37.793Z,99720.53
2023-05-05T10:01:05.461Z,99711.50
2023-05-05T10:03:32.935Z,99715.91
2023-05-05T10:06:01.086Z,99710.66
2023-05-05T10:08:33.531Z,99711.63
2023-05-05T10:11:06.412Z,99709.22
2023-05-05T10:13:41.855Z,99710.84
2023-05-05T10:16:12.524Z,99710.56
2023-05-05T10:18:46.581Z,99712.63
2023-05-05T10:21:21.018Z,99702.94
2023-05-05T10:24:30.579Z,99716.81
2023-05-05T10:27:03.395Z,99714.75
2023-05-05T10:29:45.800Z,99706.41
2023-05-05T10:32:53.967Z,99699.41
2023-05-05T10:35:21.277Z,99708.03
2023-05-05T10:37:49.226Z,99702.78
2023-05-05T10:40:17.800Z,99697.63
2023-05-05T10:42:45.850Z,99699.53
2023-05-05T10:45:13.227Z,99691.88
2023-05-05T10:47:41.237Z,99696.22
2023-05-05T10:51:03.396Z,99696.81
2023-05-05T10:54:20.878Z,99689.41
2023-05-05T10:56:49.290Z,99687.84
2023-05-05T10:59:36.040Z,99688.81
2023-05-05T11:02:23.751Z,99679.25
2023-05-05T11:05:13.558Z,99678.63
2023-05-05T11:07:42.764Z,99675.56
2023-05-05T11:10:13.197Z,99678.81
2023-05-05T11:12:52.365Z,99673.47
2023-05-05T11:15:29.243Z,99666.69
2023-05-05T11:17:57.732Z,99668.28
2023-05-05T11:20:39.340Z,99661.72
2023-05-05T11:23:06.880Z,99655.44
2023-05-05T11:25:37.604Z,99655.72
2023-05-05T11:28:12.444Z,99642.25
2023-05-05T11:30:55.116Z,99658.97
2023-05-05T11:33:33.950Z,99657.47
2023-05-05T11:36:07.537Z,99659.75
2023-05-05T11:39:31.560Z,99654.84
2023-05-05T11:42:17.454Z,99664.06
2023-05-05T11:44:44.715Z,99661.63
2023-05-05T11:47:11.951Z,99658.44
2023-05-05T11:49:39.751Z,99649.88
2023-05-05T11:52:09.195Z,99653.16
2023-05-05T11:54:48.889Z,99645.97
2023-05-05T11:57:21.219Z,99646.50
2023-05-05T12:00:07.976Z,99653.44
2023-05-05T12:07:33.587Z,99640.88
2023-05-05T12:10:03.476Z,99643.78
2023-05-05T12:12:40.496Z,99637.00
2023-05-05T12:15:09.463Z,99637.66
2023-05-05T12:17:46.994Z,99641.38
2023-05-05T12:20:14.578Z,99639.94
2023-05-05T12:22:41.981Z,99639.59
2023-05-05T12:25:10.398Z,99632.91
2023-05-05T12:27:38.527Z,99629.34
2023-05-05T12:30:18.089Z,99632.16
2023-05-05T12:32:45.940Z,99625.72
2023-05-05T12:35:14.535Z,99635.06
2023-05-05T12:37:43.505Z,99628.00
2023-05-05T12:40:47.884Z,99621.16
2023-05-05T12:43:26.877Z,99626.06
2023-05-05T12:46:11.993Z,99629.25
2023-05-05T12:48:44.962Z,99617.47
2023-05-05T12:51:23.095Z,99608.53
2023-05-05T12:54:09.955Z,99618.94
2023-05-05T12:56:47.918Z,99609.28
2023-05-05T12:59:24.518Z,99611.69
2023-05-05T13:01:54.281Z,99616.47
2023-05-05T13:04:24.013Z,99611.69
2023-05-05T13:07:13.085Z,99619.56
2023-05-05T13:09:41.002Z,99612.50
2023-05-05T13:12:11.501Z,99598.00
2023-05-05T13:14:40.000Z,99597.03
2023-05-05T13:17:07.498Z,99588.13
2023-05-05T13:19:41.562Z,99585.91
2023-05-05T13:22:15.801Z,99590.88
2023-05-05T13:24:51.548Z,99590.88
2023-05-05T13:27:20.661Z,99589.53
2023-05-05T13:29:47.953Z,99581.75
2023-05-05T13:32:15.534Z,99581.63
2023-05-05T13:34:44.092Z,99588.94
2023-05-05T13:37:11.881Z,99586.03
2023-05-05T13:39:39.112Z,99581.38
2023-05-05T13:42:06.621Z,99579.31
2023-05-05T13:44:35.258Z,99570.81
2023-05-05T13:47:03.226Z,99578.88
2023-05-05T13:49:30.332Z,99562.03
2023-05-05T13:51:58.517Z,99566.59
2023-05-05T13:54:25.986Z,99574.31
2023-05-05T13:56:54.605Z,99567.13
2023-05-05T13:59:21.800Z,99562.50
2023-05-05T14:01:49.419Z,99561.94
2023-05-05T14:04:16.510Z,99558.75
2023-05-05T14:06:43.952Z,99561.78
2023-05-05T14:09:11.117Z,99553.22
2023-05-05T14:11:38.544Z,99553.63
2023-05-05T14:14:06.126Z,99561.44
2023-05-05T14:16:33.521Z,99550.56
2023-05-05T14:19:00.711Z,99551.56
2023-05-05T14:21:28.691Z,99551.56
2023-05-05T14:23:55.769Z,99559.56
2023-05-05T14:26:23.268Z,99549.81
2023-05-05T14:28:51.185Z,99547.03
2023-05-05T14:31:18.765Z,99546.72
2023-05-05T14:33:46.029Z,99550.25
2023-05-05T14:36:14.271Z,99546.72
2023-05-05T14:38:42.823Z,99546.56
2023-05-05T14:41:10.564Z,99550.22
2023-05-05T14:43:37.689Z,99551.59
2023-05-05T14:46:07.189Z,99546.09
2023-05-05T14:48:34.803Z,99545.28
2023-05-05T14:51:03.604Z,99540.59
2023-05-05T14:53:31.000Z,99543.25
2023-05-05T14:55:58.437Z,99539.25
2023-05-05T14:58:25.605Z,99542.47
2023-05-05T15:00:54.504Z,99548.06
2023-05-05T15:03:21.662Z,99539.13
2023-05-05T15:05:49.069Z,99543.44
2023-05-05T15:08:18.597Z,99552.59
2023-05-05T15:10:46.728Z,99543.44
2023-05-05T15:13:14.368Z,99536.28
2023-05-05T15:15:41.915Z,99549.06
2023-05-05T15:18:09.040Z,99543.50
2023-05-05T15:20:36.457Z,99548.31
2023-05-05T15:23:05.048Z,99545.16
2023-05-05T15:25:32.849Z,99544.75
2023-05-05T15:28:00.915Z,99547.50
2023-05-05T15:30:28.560Z,99543.50
2023-05-05T15:32:55.867Z,99543.78
2023-05-05T15:35:25.721Z,99542.88
2023-05-05T15:37:54.366Z,99542.38
2023-05-05T15:40:21.924Z,99542.56
2023-05-05T15:42:49.855Z,99549.25
2023-05-05T15:45:17.900Z,99554.50
2023-05-05T15:47:45.935Z,99547.88
2023-05-05T15:50:14.295Z,99543.91
2023-05-05T15:52:41.663Z,99545.47
2023-05-05T15:55:10.164Z,99540.03
2023-05-05T15:57:39.767Z,99534.72
2023-05-05T16:00:08.838Z,99547.44
2023-05-05T16:02:37.306Z,99552.44
2023-05-05T16:05:05.902Z,99548.69
2023-05-05T16:07:33.119Z,99542.38
2023-05-05T16:10:00.691Z,99544.41
2023-05-05T16:12:27.825Z,99545.78
2023-05-05T16:14:55.704Z,99555.34
2023-05-05T16:17:22.949Z,99542.59
2023-05-05T16:19:50.494Z,99539.88
2023-05-05T16:22:17.652Z,99539.16
2023-05-05T16:24:45.318Z,99543.81
2023-05-05T16:27:12.411Z,99545.94
2023-05-05T16:29:39.969Z,99534.13
2023-05-05T16:32:07.063Z,99542.00
2023-05-05T16:34:34.643Z,99531.59
2023-05-05T16:37:01.727Z,99545.66
2023-05-05T16:39:29.089Z,99540.34
2023-05-05T16:41:56.276Z,99540.56
2023-05-05T16:44:23.744Z,99533.91
2023-05-05T16:46:50.886Z,99539.88
2023-05-05T16:49:18.340Z,99531.75
2023-05-05T16:51:45.522Z,99536.16
2023-05-05T16:54:13.209Z,99543.50
2023-05-05T16:56:40.510Z,99535.59
2023-05-05T16:59:07.907Z,99533.47
2023-05-05T17:01:35.203Z,99540.34
2023-05-05T17:04:05.058Z,99535.59
2023-05-05T17:06:33.167Z,99535.19
2023-05-05T17:09:00.748Z,99542.16
2023-05-05T17:11:29.372Z,99538.34
2023-05-05T17:13:56.859Z,99546.09
2023-05-05T17:16:24.081Z,99546.69
2023-05-05T17:18:54.667Z,99546.19
2023-05-05T17:21:21.775Z,99541.66
2023-05-05T17:23:49.255Z,99543.22
2023-05-05T17:26:17.132Z,99553.72
2023-05-05T17:28:44.504Z,99558.50
2023-05-05T17:31:11.539Z,99553.91
2023-05-05T17:33:38.864Z,99560.13
2023-05-05T17:36:06.652Z,99560.56
2023-05-05T17:38:34.018Z,99568.59
2023-05-05T17:41:02.272Z,99576.09
2023-05-05T17:43:29.982Z,99567.84
2023-05-05T17:45:57.204Z,99572.34
2023-05-05T17:48:26.549Z,99565.38
2023-05-05T17:50:53.757Z,99576.38
2023-05-05T17:53:21.470Z,99573.28
2023-05-05T17:55:48.979Z,99565.50
2023-05-05T17:58:16.713Z,99568.34
2023-05-05T18:00:43.865Z,99565.72
2023-05-05T18:03:11.500Z,99572.09
2023-05-05T18:05:39.065Z,99570.53
2023-05-05T18:08:06.776Z,99572.84
2023-05-05T18:10:34.114Z,99571.59
2023-05-05T18:13:02.448Z,99572.50
2023-05-05T18:15:32.485Z,99577.13
2023-05-05T18:18:00.744Z,99577.47
2023-05-05T18:20:27.950Z,99579.97
2023-05-05T18:22:56.534Z,99589.53
2023-05-05T18:25:24.055Z,99584.16
2023-05-05T18:27:51.582Z,99589.09
2023-05-05T18:30:19.161Z,99591.56
2023-05-05T18:32:46.709Z,99601.13
2023-05-05T18:35:13.921Z,99592.47
2023-05-05T18:37:42.189Z,99595.50
2023-05-05T18:40:10.544Z,99599.66
2023-05-05T18:42:37.907Z,99605.88
2023-05-05T18:45:05.714Z,99600.78
2023-05-05T18:47:33.821Z,99601.91
2023-05-05T18:50:06.580Z,99606.75
2023-05-05T18:52:34.351Z,99600.28
2023-05-05T18:55:01.917Z,99597.03
2023-05-05T18:57:29.849Z,99601.94
2023-05-05T18:59:57.275Z,99599.78
2023-05-05T19:02:24.835Z,99603.03
2023-05-05T19:04:52.011Z,99603.06
2023-05-05T19:07:31.666Z,99604.66
2023-05-05T19:10:03.362Z,99607.94
2023-05-05T19:12:30.873Z,99610.09
2023-05-05T19:14:58.125Z,99604.69
2023-05-05T19:17:25.500Z,99600.88
2023-05-05T19:19:53.009Z,99609.50
2023-05-05T19:22:22.905Z,99604.34
2023-05-05T19:24:50.179Z,99604.59
2023-05-05T19:27:17.716Z,99601.88
2023-05-05T19:29:45.139Z,99604.03
2023-05-05T19:32:12.739Z,99600.22
2023-05-05T19:34:42.051Z,99595.91
2023-05-05T19:37:09.756Z,99599.13
2023-05-05T19:39:37.008Z,99600.44
2023-05-05T19:42:04.841Z,99598.00
2023-05-05T19:44:31.996Z,99600.38
2023-05-05T19:46:59.344Z,99602.50
2023-05-05T19:49:26.739Z,99596.25
2023-05-05T19:51:54.403Z,99593.47
2023-05-05T19:54:21.653Z,99588.53
2023-05-05T19:56:49.084Z,99589.56
2023-05-05T19:59:16.203Z,99593.06
2023-05-05T20:01:43.654Z,99590.31
2023-05-05T20:04:11.114Z,99595.69
2023-05-05T20:06:38.577Z,99591.09
2023-05-05T20:09:06.312Z,99600.78
2023-05-05T20:11:34.503Z,99601.03
2023-05-05T20:14:03.369Z,99599.06
2023-05-05T20:16:31.211Z,99598.47
2023-05-05T20:18:58.386Z,99596.56
2023-05-05T20:21:27.079Z,99588.16
2023-05-05T20:23:54.535Z,99591.31
2023-05-05T20:26:22.270Z,99588.00
2023-05-05T20:28:49.450Z,99586.59
2023-05-05T20:31:17.075Z,99589.47
2023-05-05T20:33:44.371Z,99586.75
2023-05-05T20:36:12.062Z,99583.16
2023-05-05T20:38:39.261Z,99588.19
2023-05-05T20:41:06.655Z,99583.28
2023-05-05T20:43:33.976Z,99573.50
2023-05-05T20:46:02.731Z,99581.25
2023-05-05T20:48:30.178Z,99585.75
2023-05-05T20:50:58.906Z,99579.75
2023-05-05T20:53:26.316Z,99578.88
2023-05-05T20:55:53.641Z,99577.44
2023-05-05T20:58:20.976Z,99576.81
2023-05-05T21:00:49.411Z,99582.16
2023-05-05T21:03:16.697Z,99586.09
2023-05-05T21:05:44.740Z,99588.41
2023-05-05T21:08:11.922Z,99587.19
2023-05-05T21:10:39.981Z,99589.72
2023-05-05T21:13:07.319Z,99587.97
2023-05-05T21:15:37.178Z,99587.56
2023-05-05T21:18:05.168Z,99595.81
2023-05-05T21:20:32.583Z,99598.50
2023-05-05T21:22:59.853Z,99592.78
2023-05-05T21:25:30.053Z,99588.16
2023-05-05T21:27:57.164Z,99589.72
2023-05-05T21:30:24.592Z,99580.50
2023-05-05T21:32:52.310Z,99581.50
2023-05-05T21:35:19.765Z,99584.66
2023-05-05T21:37:47.268Z,99583.53
2023-05-05T21:40:16.244Z,99579.13
2023-05-05T21:42:43.815Z,99580.13
2023-05-05T21:45:11.906Z,99582.63
2023-05-05T21:47:39.329Z,99590.59
2023-05-05T21:50:07.806Z,99573.72
2023-05-05T21:52:35.507Z,99576.47
2023-05-05T21:55:03.862Z,99576.09
2023-05-05T21:57:31.141Z,99576.88
2023-05-05T21:59:58.540Z,99574.69
2023-05-05T22:02:25.884Z,99579.47
2023-05-05T22:04:53.661Z,99578.44
2023-05-05T22:07:20.973Z,99572.38
2023-05-05T22:09:48.403Z,99574.97
2023-05-05T22:12:16.253Z,99579.63
2023-05-05T22:14:43.633Z,99576.38
2023-05-05T22:17:11.174Z,99577.81
2023-05-05T22:19:38.501Z,99576.25
2023-05-05T22:22:05.676Z,99587.00
2023-05-05T22:24:33.106Z,99582.91
2023-05-05T22:27:01.817Z,99576.88
2023-05-05T22:29:29.764Z,99575.47
2023-05-05T22:31:56.968Z,99581.22
2023-05-05T22:34:25.674Z,99568.97
2023-05-05T22:36:52.904Z,99574.22
2023-05-05T22:39:20.723Z,99583.91
2023-05-05T22:41:47.928Z,99586.00
2023-05-05T22:44:15.422Z,99583.09
2023-05-05T22:46:42.650Z,99582.50
2023-05-05T22:49:10.172Z,99584.69
2023-05-05T22:51:37.791Z,99590.31
2023-05-05T22:54:05.398Z,99587.75
2023-05-05T22:56:32.890Z,99584.16
2023-05-05T22:59:00.271Z,99585.53
2023-05-05T23:01:27.510Z,99582.81
2023-05-05T23:03:54.956Z,99580.50
2023-05-05T23:06:22.130Z,99577.81
2023-05-05T23:08:49.664Z,99580.38
2023-05-05T23:11:17.110Z,99569.16
2023-05-05T23:13:44.501Z,99570.81
2023-05-05T23:16:11.731Z,99561.47
2023-05-05T23:18:39.108Z,99561.81
2023-05-05T23:21:06.345Z,99556.69
2023-05-05T23:23:33.792Z,99553.78
2023-05-05T23:26:02.199Z,99548.88
2023-05-05T23:28:29.537Z,99548.75
2023-05-05T23:30:57.067Z,99547.59
2023-05-05T23:33:24.534Z,99547.94
2023-05-05T23:35:51.750Z,99551.63
2023-05-05T23:38:19.392Z,99551.19
2023-05-05T23:40:46.658Z,99549.09
2023-05-05T23:43:13.952Z,99547.72
2023-05-05T23:45:41.218Z,99553.16
2023-05-05T23:48:08.611Z,99541.88
2023-05-05T23:50:35.683Z,99539.88
2023-05-05T23:53:03.981Z,99543.41
2023-05-05T23:55:31.079Z,99537.91
2023-05-05T23:57:58.433Z,99545.25
